To NAV CANADA Home Page Login to a new session Search on AWWS site Feedback and Comments Disclaimer Vers la page française équivalente Tips FAQ What's new on the site To the Forecasts and Observations / NOTAM section To "File a Flight Plan" website Publications and other links Update of the User's profile FIC Telephone Numbers My Weather Data Folder Route Weather Data Regional Weather Data Local Weather Data To the Forecasts and Observations / NOTAM section
Request Generated 07/02/2015 at 18:13:26 UTC . Weather information available at that time is displayed.

METAR/TAF

BURWASH/YT    

METAR CYDB 021800Z 30005KT 6SM -RA BR FEW008 SCT022 OVC030 08/06
A2982 RMK SF2CF2SC4 SLP120=
SPECI CYDB 021740Z 31004KT 270V330 6SM -RA BR FEW008 SCT015 OVC030
08/07 A2981 RMK SF2CF1SC5 SLP117=
METAR CYDB 021700Z 28005KT 6SM -RA BR FEW010 SCT025 BKN035 OVC050
08/06 A2980 RMK SF1CF2SC3SC2 VIS E 15 SLP114=
METAR CYDB 021600Z VRB02KT 6SM -RA BR FEW010 SCT022 BKN030 OVC045
08/06 A2979 RMK SF2CF2SC3SC1 VIS E 15 SLP109=

TAF CYDB 021739Z 0218/0306 28010KT 6SM -RA BR SCT020 OVC040 TEMPO
0218/0302 2SM -RA BR SCT008 OVC020
FM030200 28010KT P6SM SCT020 BKN050 TEMPO 0302/0306 5SM -SHRA BR
BKN020 OVC050
RMK NXT FCST BY 030000Z=
Your time UTC time
Weather data provided by Environment Canada and NAV CANADA